createdAt,value
2018-01-31T01:53:09.581Z,13.37
2018-01-31T01:55:37.795Z,12.40
2018-01-31T01:58:05.250Z,13.20
2018-01-31T02:00:32.708Z,13.10
2018-01-31T02:03:00.176Z,13.33
2018-01-31T02:05:27.626Z,13.23
2018-01-31T02:07:55.090Z,13.83
2018-01-31T02:10:22.536Z,12.60
2018-01-31T02:12:50.016Z,13.40
2018-01-31T02:15:17.451Z,13.47
2018-01-31T02:17:45.672Z,13.47
2018-01-31T02:20:13.123Z,14.53
2018-01-31T02:22:40.583Z,13.60
2018-01-31T02:25:08.029Z,13.47
2018-01-31T02:27:35.485Z,13.07
2018-01-31T02:30:03.704Z,13.33
2018-01-31T02:32:31.159Z,13.10
2018-01-31T02:34:58.614Z,12.67
2018-01-31T02:37:26.053Z,12.90
2018-01-31T02:39:57.742Z,12.90
2018-01-31T02:42:25.205Z,13.10
2018-01-31T02:44:52.667Z,13.17
2018-01-31T02:47:20.129Z,12.80
2018-01-31T02:49:47.578Z,11.93
2018-01-31T02:52:15.039Z,10.70
2018-01-31T02:54:43.251Z,11.20
2018-01-31T02:57:10.721Z,10.87
2018-01-31T02:59:38.164Z,10.43
2018-01-31T03:02:06.372Z,9.03
2018-01-31T03:04:33.830Z,10.80
2018-01-31T03:07:01.278Z,8.67
2018-01-31T03:09:28.715Z,8.03
2018-01-31T03:11:56.165Z,7.90
2018-01-31T03:14:23.605Z,6.70
2018-01-31T03:16:51.061Z,6.20
2018-01-31T03:19:18.514Z,6.63
2018-01-31T03:21:45.977Z,5.93
2018-01-31T03:24:13.410Z,5.57
2018-01-31T03:26:40.861Z,4.83
2018-01-31T03:29:08.323Z,4.60
2018-01-31T03:31:35.751Z,4.10
2018-01-31T03:34:03.958Z,4.00
2018-01-31T03:36:31.422Z,4.00
2018-01-31T03:38:58.850Z,3.70
2018-01-31T03:41:27.064Z,3.20
2018-01-31T03:43:54.481Z,3.13
2018-01-31T03:46:21.932Z,3.50
2018-01-31T03:48:49.374Z,3.43
2018-01-31T03:51:16.814Z,2.77
2018-01-31T03:53:44.260Z,3.30
2018-01-31T03:56:12.465Z,2.77
2018-01-31T03:58:39.921Z,2.60
2018-01-31T04:01:07.353Z,2.83
2018-01-31T04:03:35.564Z,2.53
2018-01-31T04:06:03.021Z,2.30
2018-01-31T04:08:30.484Z,2.50
2018-01-31T04:10:57.934Z,2.33
2018-01-31T04:13:25.385Z,2.40
2018-01-31T04:15:53.605Z,2.40
2018-01-31T04:18:21.050Z,2.43
2018-01-31T04:20:48.499Z,2.37
2018-01-31T04:23:15.948Z,2.67
2018-01-31T04:25:44.185Z,2.30
2018-01-31T04:28:11.643Z,2.73
2018-01-31T04:30:39.089Z,2.63
2018-01-31T04:33:06.527Z,2.80
2018-01-31T04:35:33.980Z,2.50
2018-01-31T04:38:02.189Z,3.33
2018-01-31T04:40:29.683Z,2.33
2018-01-31T04:42:57.135Z,2.30
2018-01-31T04:45:24.598Z,3.10
2018-01-31T04:47:52.049Z,3.00
2018-01-31T04:50:19.493Z,2.30
2018-01-31T04:52:46.945Z,2.07
2018-01-31T04:55:15.149Z,2.20
2018-01-31T04:57:42.607Z,2.30
2018-01-31T05:00:10.068Z,2.37
2018-01-31T05:02:37.495Z,2.37
2018-01-31T05:05:05.719Z,2.80
2018-01-31T05:07:33.158Z,2.33
2018-01-31T05:10:00.611Z,2.83
2018-01-31T05:12:28.811Z,2.67
2018-01-31T05:14:56.279Z,3.07
2018-01-31T05:17:23.718Z,3.07
2018-01-31T05:19:51.952Z,2.97
2018-01-31T05:22:19.393Z,2.97
2018-01-31T05:24:46.854Z,2.60
2018-01-31T05:27:14.315Z,2.30
2018-01-31T05:29:41.772Z,2.43
2018-01-31T05:32:09.199Z,2.63
2018-01-31T05:34:37.411Z,2.50
2018-01-31T05:37:04.871Z,2.70
2018-01-31T05:39:32.305Z,2.67
2018-01-31T05:41:59.751Z,2.20
2018-01-31T05:44:27.179Z,2.27
2018-01-31T05:46:54.633Z,2.37
2018-01-31T05:49:22.838Z,2.53
2018-01-31T05:51:50.318Z,2.50
2018-01-31T05:54:17.792Z,3.17
2018-01-31T05:56:45.256Z,2.50
2018-01-31T05:59:12.702Z,2.87
2018-01-31T06:01:40.128Z,2.60
2018-01-31T06:04:07.607Z,3.00
2018-01-31T06:06:35.032Z,2.70
2018-01-31T06:09:02.501Z,3.10
2018-01-31T06:11:29.954Z,3.13
2018-01-31T06:13:57.411Z,2.87
2018-01-31T06:16:25.628Z,3.20
2018-01-31T06:18:53.843Z,3.30
2018-01-31T06:21:21.282Z,3.40
2018-01-31T06:23:48.748Z,4.85
2018-01-31T06:26:16.215Z,3.33
2018-01-31T06:28:43.672Z,4.07
2018-01-31T06:31:11.206Z,3.67
2018-01-31T06:33:38.655Z,3.67
2018-01-31T06:36:06.877Z,3.70
2018-01-31T06:38:34.329Z,3.30
2018-01-31T06:41:01.794Z,3.20
2018-01-31T06:43:29.248Z,3.83
2018-01-31T06:45:56.701Z,3.33
2018-01-31T06:48:24.215Z,3.13
2018-01-31T06:50:51.666Z,3.13
2018-01-31T06:53:19.275Z,3.10
2018-01-31T06:55:47.490Z,3.47
2018-01-31T06:58:14.944Z,3.10
2018-01-31T07:00:42.397Z,2.97
2018-01-31T07:03:09.987Z,3.50
2018-01-31T07:05:38.238Z,3.07
2018-01-31T07:08:05.703Z,3.37
2018-01-31T07:10:33.155Z,3.23
2018-01-31T07:13:00.597Z,3.23
2018-01-31T07:15:28.814Z,2.97
2018-01-31T07:17:56.288Z,3.13
2018-01-31T07:20:23.739Z,2.90
2018-01-31T07:22:51.191Z,3.20
2018-01-31T07:25:18.635Z,2.80
2018-01-31T07:27:46.869Z,2.90
2018-01-31T07:30:14.322Z,3.43
2018-01-31T07:32:41.766Z,3.00
2018-01-31T07:35:09.226Z,3.00
2018-01-31T07:37:36.689Z,2.97
2018-01-31T07:40:04.138Z,3.13
2018-01-31T07:42:31.585Z,2.70
2018-01-31T07:44:59.818Z,2.83
2018-01-31T07:47:27.252Z,3.20
2018-01-31T07:49:54.697Z,2.90
2018-01-31T07:52:22.906Z,3.00
2018-01-31T07:54:50.368Z,3.03
2018-01-31T07:57:17.809Z,3.20
2018-01-31T07:59:45.278Z,3.17
2018-01-31T08:02:12.777Z,2.97
2018-01-31T08:04:40.259Z,3.00
2018-01-31T08:07:07.701Z,3.07
2018-01-31T08:09:35.178Z,3.10
2018-01-31T08:12:02.630Z,3.70
2018-01-31T08:14:30.082Z,2.90
2018-01-31T08:16:57.545Z,3.17
2018-01-31T08:19:25.003Z,2.70
2018-01-31T08:21:52.467Z,2.83
2018-01-31T08:24:20.687Z,3.40
2018-01-31T08:26:48.150Z,4.20
2018-01-31T08:29:15.604Z,3.00
2018-01-31T08:31:43.063Z,3.03
2018-01-31T08:34:10.518Z,3.40
2018-01-31T08:36:37.964Z,4.03
2018-01-31T08:39:05.450Z,4.53
2018-01-31T08:41:32.893Z,3.57
2018-01-31T08:44:00.360Z,3.63
2018-01-31T08:46:27.804Z,3.73
2018-01-31T08:48:55.261Z,3.73
2018-01-31T08:51:22.718Z,2.93
2018-01-31T08:53:50.181Z,3.60
2018-01-31T08:56:17.634Z,4.30
2018-01-31T08:58:45.086Z,3.37
2018-01-31T09:01:13.292Z,4.03
2018-01-31T09:03:40.762Z,3.03
2018-01-31T09:06:08.216Z,3.73
2018-01-31T09:08:35.658Z,4.07
2018-01-31T09:11:03.862Z,4.23
2018-01-31T09:13:31.317Z,3.40
2018-01-31T09:15:58.828Z,3.00
2018-01-31T09:18:26.276Z,3.50
2018-01-31T09:20:53.721Z,3.63
2018-01-31T09:23:21.182Z,3.60
2018-01-31T09:25:48.629Z,3.10
2018-01-31T09:28:16.061Z,3.57
2018-01-31T09:30:44.270Z,3.50
2018-01-31T09:33:11.738Z,3.13
2018-01-31T09:35:39.201Z,3.43
2018-01-31T09:38:06.640Z,2.97
2018-01-31T09:40:34.860Z,2.87
2018-01-31T09:43:02.308Z,2.87
2018-01-31T09:45:29.778Z,3.00
2018-01-31T09:47:57.235Z,2.87
2018-01-31T09:50:24.728Z,3.03
2018-01-31T09:52:52.166Z,3.00
2018-01-31T09:55:19.648Z,2.60
2018-01-31T09:57:47.099Z,2.47
2018-01-31T10:00:15.337Z,2.30
2018-01-31T10:02:43.556Z,2.63
2018-01-31T10:05:11.016Z,2.13
2018-01-31T10:07:38.471Z,2.30
2018-01-31T10:10:05.915Z,2.17
2018-01-31T10:12:33.370Z,2.70
2018-01-31T10:15:01.604Z,2.60
2018-01-31T10:17:29.065Z,2.33
2018-01-31T10:19:56.524Z,2.20
2018-01-31T10:22:23.992Z,2.80
2018-01-31T10:24:51.438Z,3.17
2018-01-31T10:27:18.861Z,2.30
2018-01-31T10:29:47.073Z,2.20
2018-01-31T10:32:14.513Z,2.47
2018-01-31T10:34:42.735Z,2.43
2018-01-31T10:37:10.170Z,2.10
2018-01-31T10:39:37.716Z,2.30
2018-01-31T10:42:05.932Z,2.00
2018-01-31T10:44:34.141Z,2.47
2018-01-31T10:47:01.614Z,2.10
2018-01-31T10:49:29.052Z,2.03
2018-01-31T10:51:56.503Z,2.27
2018-01-31T10:59:18.859Z,1.87
2018-01-31T11:01:46.302Z,1.90
2018-01-31T11:04:14.506Z,2.73
2018-01-31T11:06:42.723Z,1.90
2018-01-31T11:09:10.205Z,2.27
2018-01-31T11:11:37.665Z,1.90
2018-01-31T11:14:05.111Z,1.80
2018-01-31T11:16:32.539Z,1.67
2018-01-31T11:19:00.014Z,1.67
2018-01-31T11:21:28.256Z,1.67
2018-01-31T11:23:56.480Z,2.40
2018-01-31T11:26:23.914Z,1.77
2018-01-31T11:28:51.370Z,1.90
2018-01-31T11:31:19.603Z,2.10
2018-01-31T11:33:47.065Z,1.70
2018-01-31T11:36:14.506Z,1.60
2018-01-31T11:38:41.952Z,1.92
2018-01-31T11:41:09.406Z,1.80
2018-01-31T11:43:36.860Z,1.80
2018-01-31T11:46:05.061Z,2.10
2018-01-31T11:48:32.507Z,1.80
2018-01-31T11:51:00.731Z,1.67
2018-01-31T11:53:28.173Z,1.90
2018-01-31T11:55:55.648Z,2.20
2018-01-31T11:58:23.099Z,1.70
2018-01-31T12:00:50.554Z,1.80
2018-01-31T12:03:17.987Z,2.20
2018-01-31T12:05:46.197Z,2.20
2018-01-31T12:08:13.670Z,1.70
2018-01-31T12:10:41.839Z,1.80
2018-01-31T12:13:21.037Z,1.70
2018-01-31T12:16:01.200Z,2.37
2018-01-31T12:18:52.147Z,1.70
2018-01-31T12:21:31.334Z,1.97
2018-01-31T12:24:11.562Z,2.30
2018-01-31T12:26:51.723Z,1.77
2018-01-31T12:29:32.590Z,2.03
2018-01-31T12:32:12.777Z,2.67
2018-01-31T12:34:51.950Z,1.80
2018-01-31T12:37:31.244Z,2.23
2018-01-31T12:39:58.218Z,2.50
2018-01-31T12:42:25.179Z,2.47
2018-01-31T12:44:52.157Z,2.63
2018-01-31T12:47:31.456Z,2.47
2018-01-31T12:50:10.898Z,2.13
2018-01-31T12:52:50.283Z,1.87
2018-01-31T12:55:29.793Z,1.80
2018-01-31T12:58:09.095Z,2.10
2018-01-31T13:00:49.273Z,3.28
2018-01-31T13:03:31.401Z,2.37
2018-01-31T13:06:11.509Z,2.20
2018-01-31T13:08:50.851Z,1.80
2018-01-31T13:11:30.157Z,2.00
2018-01-31T13:14:09.395Z,2.10
2018-01-31T13:16:48.797Z,1.70
2018-01-31T13:19:19.024Z,1.83
2018-01-31T13:21:58.408Z,1.97
2018-01-31T13:24:37.607Z,1.70
2018-01-31T13:27:17.192Z,1.67
2018-01-31T13:29:57.269Z,1.50
2018-01-31T13:32:36.687Z,1.57
2018-01-31T13:35:16.729Z,1.63
2018-01-31T13:38:02.547Z,1.60
2018-01-31T13:40:41.850Z,2.00
2018-01-31T13:43:22.091Z,1.70
2018-01-31T13:46:01.376Z,1.57
2018-01-31T13:48:40.830Z,1.53
2018-01-31T13:51:20.163Z,1.50
2018-01-31T13:53:59.485Z,1.53
2018-01-31T13:56:38.896Z,2.00
2018-01-31T13:59:18.249Z,2.43
2018-01-31T14:01:57.490Z,1.80
2018-01-31T14:04:50.681Z,1.80
2018-01-31T14:07:30.116Z,2.00
2018-01-31T14:10:10.225Z,1.60
2018-01-31T14:12:49.609Z,1.77
2018-01-31T14:15:29.672Z,1.50
2018-01-31T14:18:09.012Z,1.27
2018-01-31T14:20:48.375Z,1.80
2018-01-31T14:23:26.497Z,1.43
2018-01-31T14:26:05.890Z,1.40
2018-01-31T14:28:45.172Z,1.13
2018-01-31T14:31:24.594Z,1.27
2018-01-31T14:34:03.939Z,1.30
2018-01-31T14:36:30.947Z,1.40
2018-01-31T14:38:57.906Z,1.23
2018-01-31T14:41:24.876Z,1.20
2018-01-31T14:43:51.919Z,1.33
2018-01-31T14:46:18.907Z,1.30
2018-01-31T14:48:45.867Z,1.60
2018-01-31T14:51:12.839Z,1.10
2018-01-31T14:53:40.559Z,0.90
2018-01-31T14:56:07.512Z,2.10
2018-01-31T14:58:34.465Z,1.23
2018-01-31T15:01:01.409Z,1.10
2018-01-31T15:03:28.366Z,1.10
2018-01-31T15:05:56.326Z,1.50
2018-01-31T15:08:23.287Z,1.07
2018-01-31T15:10:50.244Z,1.10
2018-01-31T15:13:17.196Z,1.10
2018-01-31T15:15:44.143Z,1.07
2018-01-31T15:18:11.104Z,1.30
2018-01-31T15:20:38.048Z,1.30
2018-01-31T15:23:05.041Z,1.20
2018-01-31T15:25:31.961Z,1.20
2018-01-31T15:27:59.003Z,1.47
2018-01-31T15:30:25.921Z,1.40
2018-01-31T15:32:52.910Z,1.40
2018-01-31T15:35:19.878Z,1.30
2018-01-31T15:37:46.814Z,1.33
2018-01-31T15:40:13.802Z,1.53
2018-01-31T15:42:40.743Z,1.50
2018-01-31T15:45:07.722Z,1.23
2018-01-31T15:47:34.678Z,1.77
2018-01-31T15:50:01.654Z,1.50
2018-01-31T15:52:28.616Z,1.37
2018-01-31T15:54:55.571Z,1.30
2018-01-31T15:57:22.549Z,1.70
2018-01-31T15:59:49.520Z,1.80
2018-01-31T16:02:17.225Z,1.37
2018-01-31T16:04:44.192Z,1.50
2018-01-31T16:07:11.158Z,1.50
2018-01-31T16:09:38.131Z,2.33
2018-01-31T16:12:05.871Z,1.53
2018-01-31T16:14:32.848Z,1.57
2018-01-31T16:17:00.296Z,1.43
2018-01-31T16:19:39.522Z,1.77
2018-01-31T16:22:06.974Z,1.60
2018-01-31T16:24:34.439Z,1.43
2018-01-31T16:27:01.891Z,1.50
2018-01-31T16:29:47.167Z,1.50
2018-01-31T16:32:26.503Z,1.50
2018-01-31T16:34:53.956Z,1.50
2018-01-31T16:37:21.412Z,1.70
2018-01-31T16:39:48.876Z,1.60
2018-01-31T16:42:16.327Z,1.83
2018-01-31T16:44:43.777Z,1.60
2018-01-31T16:47:11.254Z,1.50
2018-01-31T16:49:38.710Z,1.83
2018-01-31T16:52:06.162Z,1.50
2018-01-31T16:54:33.610Z,1.90
2018-01-31T16:57:01.837Z,1.50
2018-01-31T16:59:29.303Z,1.70
2018-01-31T17:01:56.759Z,1.60
2018-01-31T17:04:24.198Z,2.03
2018-01-31T17:06:52.841Z,1.53
2018-01-31T17:09:20.343Z,1.70
2018-01-31T17:11:47.750Z,1.80
2018-01-31T17:14:15.199Z,1.80
2018-01-31T17:16:42.633Z,1.60
2018-01-31T17:19:10.109Z,1.87
2018-01-31T17:21:37.581Z,1.70
2018-01-31T17:24:05.028Z,2.20
2018-01-31T17:26:37.274Z,1.73
2018-01-31T17:29:04.769Z,2.00
2018-01-31T17:31:32.240Z,1.80
2018-01-31T17:33:59.690Z,2.00
2018-01-31T17:36:27.131Z,1.40
2018-01-31T17:38:54.597Z,2.20
2018-01-31T17:41:22.055Z,1.80
2018-01-31T17:43:49.489Z,1.80
2018-01-31T17:46:16.938Z,1.67
2018-01-31T17:48:44.415Z,1.83
2018-01-31T17:51:11.864Z,1.40
2018-01-31T17:53:39.331Z,2.00
2018-01-31T17:56:07.232Z,1.47
2018-01-31T17:58:35.456Z,1.57
2018-01-31T18:01:02.925Z,1.90
2018-01-31T18:03:30.376Z,1.90
2018-01-31T18:05:57.826Z,1.70
2018-01-31T18:08:25.275Z,1.87
2018-01-31T18:10:52.725Z,1.70
2018-01-31T18:13:20.948Z,1.67
2018-01-31T18:15:48.381Z,1.87
2018-01-31T18:18:15.847Z,1.77
2018-01-31T18:20:44.050Z,1.70
2018-01-31T18:23:11.535Z,1.93
2018-01-31T18:25:38.969Z,1.90
2018-01-31T18:28:06.444Z,2.00
2018-01-31T18:30:33.910Z,1.80
2018-01-31T18:33:01.383Z,1.60
2018-01-31T18:35:28.835Z,1.80
2018-01-31T18:37:56.285Z,1.87
2018-01-31T18:40:23.729Z,1.83
2018-01-31T18:42:51.171Z,1.83
2018-01-31T18:45:19.393Z,1.97
2018-01-31T18:47:47.861Z,2.07
2018-01-31T18:50:15.331Z,2.10
2018-01-31T18:52:42.767Z,2.20
2018-01-31T18:55:10.992Z,1.83
2018-01-31T18:57:38.435Z,1.73
2018-01-31T19:00:05.900Z,1.83
2018-01-31T19:02:33.360Z,1.60
2018-01-31T19:05:00.810Z,1.83
2018-01-31T19:07:28.247Z,1.67
2018-01-31T19:09:56.479Z,1.40
2018-01-31T19:12:23.910Z,1.70
2018-01-31T19:14:52.162Z,1.70
2018-01-31T19:17:19.617Z,1.80
2018-01-31T19:19:47.071Z,1.80
2018-01-31T19:22:14.530Z,1.70
2018-01-31T19:24:42.007Z,1.83
2018-01-31T19:27:09.437Z,1.70
2018-01-31T19:29:36.879Z,2.30
2018-01-31T19:32:04.319Z,1.43
2018-01-31T19:34:32.600Z,1.40
2018-01-31T19:37:00.815Z,1.60
2018-01-31T19:39:28.322Z,1.53
2018-01-31T19:41:55.773Z,2.00
2018-01-31T19:44:23.215Z,1.70
2018-01-31T19:46:50.678Z,1.90
2018-01-31T19:49:18.140Z,1.90
2018-01-31T19:51:45.589Z,1.50
2018-01-31T19:54:13.027Z,1.67
2018-01-31T19:56:41.277Z,1.63
2018-01-31T19:59:08.705Z,1.70
2018-01-31T20:01:36.236Z,1.63
2018-01-31T20:04:03.663Z,2.00
2018-01-31T20:06:31.124Z,2.10
2018-01-31T20:08:58.563Z,1.43
2018-01-31T20:11:26.007Z,1.93
2018-01-31T20:13:53.460Z,2.10
2018-01-31T20:16:20.907Z,2.10
2018-01-31T20:18:49.118Z,1.80
2018-01-31T20:21:16.586Z,1.63
2018-01-31T20:23:44.041Z,1.90
2018-01-31T20:26:11.463Z,1.87
2018-01-31T20:28:39.686Z,1.87
2018-01-31T20:31:07.140Z,1.70
2018-01-31T20:33:34.618Z,1.70
2018-01-31T20:36:02.058Z,1.80
2018-01-31T20:38:29.485Z,1.50
2018-01-31T20:40:57.723Z,2.30
2018-01-31T20:43:25.167Z,2.37
2018-01-31T20:45:52.594Z,1.67
2018-01-31T20:48:20.835Z,2.50
2018-01-31T20:50:48.284Z,1.57
2018-01-31T20:53:15.745Z,1.87
2018-01-31T20:55:43.207Z,1.60
2018-01-31T20:58:10.639Z,2.27
2018-01-31T21:00:38.892Z,1.87
2018-01-31T21:03:06.418Z,1.97
2018-01-31T21:05:33.888Z,1.87
2018-01-31T21:08:01.345Z,2.20
2018-01-31T21:10:28.847Z,1.30
2018-01-31T21:12:56.304Z,1.90
2018-01-31T21:15:23.765Z,1.90
2018-01-31T21:17:51.221Z,1.63
2018-01-31T21:20:18.733Z,2.30
2018-01-31T21:22:46.143Z,1.50
2018-01-31T21:25:13.595Z,1.80
2018-01-31T21:27:41.050Z,1.70
2018-01-31T21:30:08.509Z,1.87
2018-01-31T21:32:35.953Z,1.70
2018-01-31T21:35:03.395Z,1.87
2018-01-31T21:37:31.597Z,1.77
2018-01-31T21:39:59.744Z,1.70
2018-01-31T21:42:27.973Z,2.27
2018-01-31T21:44:55.454Z,1.90
2018-01-31T21:47:22.907Z,1.87
2018-01-31T21:49:50.368Z,1.80
2018-01-31T21:52:17.837Z,2.10
2018-01-31T21:54:45.297Z,2.40
2018-01-31T21:57:12.737Z,2.13
2018-01-31T21:59:40.218Z,1.80
2018-01-31T22:02:07.671Z,1.80
2018-01-31T22:04:35.133Z,1.73
2018-01-31T22:07:02.595Z,2.30
2018-01-31T22:09:30.048Z,2.40
2018-01-31T22:11:57.482Z,1.97
2018-01-31T22:14:24.951Z,1.90
2018-01-31T22:16:52.382Z,1.87
2018-01-31T22:19:19.850Z,1.87
2018-01-31T22:21:47.296Z,1.70
2018-01-31T22:24:14.776Z,1.73
2018-01-31T22:26:42.244Z,2.40
2018-01-31T22:29:09.688Z,1.80
2018-01-31T22:31:37.144Z,1.90
2018-01-31T22:34:04.605Z,1.63
2018-01-31T22:36:32.072Z,1.97
2018-01-31T22:38:59.595Z,2.03
2018-01-31T22:41:27.084Z,2.07
2018-01-31T22:43:55.280Z,2.00
2018-01-31T22:46:22.731Z,1.80
2018-01-31T22:48:50.200Z,1.60
2018-01-31T22:51:17.670Z,2.10
2018-01-31T22:53:45.135Z,2.03
2018-01-31T22:56:12.579Z,2.00
2018-01-31T22:58:40.038Z,1.80
2018-01-31T23:01:07.492Z,1.97
2018-01-31T23:03:34.991Z,1.70
2018-01-31T23:06:02.443Z,1.60
2018-01-31T23:08:29.927Z,1.93
2018-01-31T23:10:57.410Z,2.30
2018-01-31T23:13:24.869Z,1.90
2018-01-31T23:15:53.114Z,1.73
2018-01-31T23:18:26.739Z,2.77
2018-01-31T23:20:54.200Z,2.20
2018-01-31T23:23:21.657Z,2.23
2018-01-31T23:25:49.116Z,1.90
2018-01-31T23:28:16.578Z,2.07
2018-01-31T23:30:44.028Z,1.70
2018-01-31T23:33:11.471Z,2.00
2018-01-31T23:35:38.932Z,2.10
2018-01-31T23:38:06.408Z,2.03
2018-01-31T23:40:33.874Z,1.90
2018-01-31T23:43:02.091Z,1.90
2018-01-31T23:45:30.308Z,2.30
2018-01-31T23:47:57.782Z,2.40
2018-01-31T23:50:25.226Z,1.50
2018-01-31T23:52:52.688Z,1.63
2018-01-31T23:55:20.139Z,2.00
2018-01-31T23:57:47.591Z,1.80
